createdAt,value
2023-04-09T00:01:12.665Z,12.15
2023-04-09T00:03:41.221Z,11.53
2023-04-09T00:06:12.314Z,11.11
2023-04-09T00:09:15.701Z,10.80
2023-04-09T00:11:43.810Z,10.50
2023-04-09T00:14:11.975Z,10.29
2023-04-09T00:16:40.677Z,10.11
2023-04-09T00:19:08.712Z,9.96
2023-04-09T00:21:39.211Z,9.84
2023-04-09T00:24:07.999Z,9.72
2023-04-09T00:26:36.547Z,9.62
2023-04-09T00:29:07.932Z,9.54
2023-04-09T00:31:36.289Z,9.48
2023-04-09T00:34:07.469Z,9.43
2023-04-09T00:36:35.408Z,9.38
2023-04-09T00:39:09.250Z,9.34
2023-04-09T00:41:39.901Z,9.30
2023-04-09T00:44:07.963Z,9.25
2023-04-09T00:46:38.705Z,9.20
2023-04-09T00:49:06.847Z,9.16
2023-04-09T00:51:36.932Z,9.13
2023-04-09T00:54:05.649Z,9.41
2023-04-09T00:56:34.691Z,10.74
2023-04-09T00:59:05.969Z,11.93
2023-04-09T01:01:34.260Z,12.59
2023-04-09T01:04:02.578Z,12.07
2023-04-09T01:06:43.999Z,11.41
2023-04-09T01:09:22.845Z,10.88
2023-04-09T01:12:12.090Z,10.48
2023-04-09T01:14:57.492Z,10.15
2023-04-09T01:17:38.274Z,9.88
2023-04-09T01:20:15.491Z,9.69
2023-04-09T01:23:37.014Z,9.51
2023-04-09T01:26:19.355Z,9.33
2023-04-09T01:29:00.465Z,9.23
2023-04-09T01:31:34.626Z,9.12
2023-04-09T01:34:12.889Z,8.99
2023-04-09T01:36:45.878Z,9.21
2023-04-09T01:39:33.183Z,10.75
2023-04-09T01:42:11.013Z,12.03
2023-04-09T01:44:42.787Z,12.50
2023-04-09T01:47:11.504Z,11.90
2023-04-09T01:49:45.234Z,11.21
2023-04-09T01:52:13.936Z,10.67
2023-04-09T01:54:43.208Z,10.24
2023-04-09T01:57:11.390Z,9.91
2023-04-09T01:59:39.865Z,9.64
2023-04-09T02:02:24.759Z,9.38
2023-04-09T02:04:54.368Z,9.15
2023-04-09T02:07:39.335Z,9.01
2023-04-09T02:10:13.434Z,8.87
2023-04-09T02:12:49.418Z,8.76
2023-04-09T02:15:19.340Z,8.91
2023-04-09T02:17:47.771Z,10.23
2023-04-09T02:20:19.638Z,11.62
2023-04-09T02:22:48.435Z,12.30
2023-04-09T02:25:16.303Z,11.75
2023-04-09T02:27:44.189Z,11.04
2023-04-09T02:30:12.200Z,10.51
2023-04-09T02:32:40.415Z,10.14
2023-04-09T02:35:08.918Z,9.84
2023-04-09T02:37:36.876Z,9.60
2023-04-09T02:40:05.323Z,9.40
2023-04-09T02:42:33.220Z,9.22
2023-04-09T02:45:04.414Z,9.07
2023-04-09T02:47:36.261Z,9.15
2023-04-09T02:50:05.244Z,10.35
2023-04-09T02:52:35.731Z,11.83
2023-04-09T02:55:07.256Z,12.46
2023-04-09T02:57:37.303Z,11.91
2023-04-09T03:00:05.987Z,11.24
2023-04-09T03:02:43.701Z,10.70
2023-04-09T03:05:12.261Z,10.33
2023-04-09T03:07:40.468Z,10.05
2023-04-09T03:10:11.906Z,9.84
2023-04-09T03:12:55.291Z,9.65
2023-04-09T03:15:23.940Z,9.50
2023-04-09T03:17:52.285Z,9.38
2023-04-09T03:20:34.996Z,9.26
2023-04-09T03:23:03.744Z,9.14
2023-04-09T03:25:36.837Z,9.05
2023-04-09T03:28:12.636Z,9.32
2023-04-09T03:30:43.488Z,10.71
2023-04-09T03:33:11.602Z,11.98
2023-04-09T03:35:52.542Z,12.53
2023-04-09T03:38:28.206Z,11.94
2023-04-09T03:40:57.146Z,11.35
2023-04-09T03:43:28.268Z,10.91
2023-04-09T03:45:56.441Z,10.60
2023-04-09T03:48:27.030Z,10.33
2023-04-09T03:51:04.691Z,10.08
2023-04-09T03:53:37.853Z,9.86
2023-04-09T03:56:07.973Z,9.70
2023-04-09T03:58:39.665Z,9.58
2023-04-09T04:01:08.545Z,9.47
2023-04-09T04:03:43.644Z,9.38
2023-04-09T04:06:38.331Z,9.29
2023-04-09T04:09:35.601Z,9.23
2023-04-09T04:12:07.492Z,9.20
2023-04-09T04:14:51.046Z,9.16
2023-04-09T04:17:31.711Z,9.13
2023-04-09T04:20:01.509Z,9.09
2023-04-09T04:22:33.253Z,9.25
2023-04-09T04:25:03.840Z,10.55
2023-04-09T04:27:31.938Z,12.00
2023-04-09T04:30:02.122Z,12.74
2023-04-09T04:32:51.117Z,12.14
2023-04-09T04:35:21.836Z,11.49
2023-04-09T04:37:53.325Z,10.99
2023-04-09T04:40:24.899Z,10.62
2023-04-09T04:43:00.518Z,10.32
2023-04-09T04:45:35.076Z,10.07
2023-04-09T04:48:09.482Z,9.87
2023-04-09T04:50:38.332Z,9.70
2023-04-09T04:53:10.069Z,9.54
2023-04-09T04:55:46.267Z,9.40
2023-04-09T04:58:16.607Z,9.29
2023-04-09T05:00:49.271Z,9.21
2023-04-09T05:03:18.158Z,9.17
2023-04-09T05:06:06.076Z,9.39
2023-04-09T05:08:45.086Z,10.87
2023-04-09T05:11:15.117Z,12.25
2023-04-09T05:13:43.515Z,12.97
2023-04-09T05:16:21.085Z,12.45
2023-04-09T05:18:55.233Z,11.73
2023-04-09T05:21:27.649Z,11.27
2023-04-09T05:23:57.734Z,10.94
2023-04-09T05:26:27.418Z,10.70
2023-04-09T05:28:58.696Z,10.48
2023-04-09T05:31:27.227Z,10.26
2023-04-09T05:34:16.501Z,10.02
2023-04-09T05:36:47.932Z,9.80
2023-04-09T05:39:18.984Z,9.66
2023-04-09T05:41:56.836Z,9.50
2023-04-09T05:44:27.765Z,9.35
2023-04-09T05:47:18.973Z,9.21
2023-04-09T05:49:59.767Z,9.37
2023-04-09T05:52:28.810Z,10.68
2023-04-09T05:55:06.796Z,12.06
2023-04-09T05:57:48.085Z,12.79
2023-04-09T06:00:25.757Z,12.16
2023-04-09T06:02:53.799Z,11.51
2023-04-09T06:05:22.180Z,10.99
2023-04-09T06:07:50.681Z,10.59
2023-04-09T06:10:18.746Z,10.29
2023-04-09T06:12:48.524Z,10.03
2023-04-09T06:15:19.963Z,9.79
2023-04-09T06:17:48.379Z,9.56
2023-04-09T06:20:17.308Z,9.38
2023-04-09T06:22:48.379Z,9.43
2023-04-09T06:25:17.157Z,10.60
2023-04-09T06:27:45.222Z,11.90
2023-04-09T06:30:35.876Z,12.70
2023-04-09T06:33:03.788Z,12.18
2023-04-09T06:35:37.101Z,11.51
2023-04-09T06:38:05.371Z,11.02
2023-04-09T06:40:33.580Z,10.68
2023-04-09T06:43:01.970Z,10.39
2023-04-09T06:45:39.113Z,10.16
2023-04-09T06:48:09.265Z,9.97
2023-04-09T06:50:46.864Z,9.79
2023-04-09T06:53:15.673Z,9.94
2023-04-09T06:55:46.615Z,11.05
2023-04-09T06:58:14.456Z,12.29
2023-04-09T07:00:42.781Z,13.03
2023-04-09T07:03:11.488Z,12.60
2023-04-09T07:05:39.682Z,11.97
2023-04-09T07:08:08.032Z,11.48
2023-04-09T07:10:38.451Z,11.09
2023-04-09T07:13:06.759Z,10.78
2023-04-09T07:15:34.976Z,10.58
2023-04-09T07:18:03.316Z,10.43
2023-04-09T07:20:34.345Z,10.33
2023-04-09T07:23:02.576Z,10.20
2023-04-09T07:25:33.211Z,10.11
2023-04-09T07:28:44.353Z,9.98
2023-04-09T07:31:24.200Z,10.37
2023-04-09T07:33:55.441Z,11.76
2023-04-09T07:36:26.686Z,12.95
2023-04-09T07:38:57.747Z,12.99
2023-04-09T07:41:25.991Z,12.23
2023-04-09T07:43:54.051Z,11.58
2023-04-09T07:46:22.357Z,11.07
2023-04-09T07:48:51.081Z,10.66
2023-04-09T07:51:22.266Z,10.33
2023-04-09T07:53:50.679Z,10.09
2023-04-09T07:56:22.427Z,10.20
2023-04-09T07:58:51.421Z,11.06
2023-04-09T13:02:36.657Z,10.99
2023-04-09T13:05:05.546Z,11.89
2023-04-09T13:07:33.476Z,12.47
2023-04-09T13:10:01.689Z,12.99
2023-04-09T13:12:30.243Z,13.93
2023-04-09T13:14:59.239Z,14.66
2023-04-09T13:17:27.439Z,15.44
2023-04-09T13:19:55.630Z,15.99
2023-04-09T13:22:23.684Z,16.15
2023-04-09T13:24:51.531Z,15.48
2023-04-09T13:27:19.402Z,14.75
2023-04-09T13:29:47.380Z,14.19
2023-04-09T13:32:15.604Z,13.71
2023-04-09T13:34:43.526Z,13.35
2023-04-09T13:37:11.777Z,13.05
2023-04-09T13:39:39.784Z,12.79
2023-04-09T13:42:13.736Z,12.86
2023-04-09T13:44:45.098Z,14.11
2023-04-09T13:47:13.645Z,15.20
2023-04-09T13:49:42.429Z,15.68
2023-04-09T13:52:10.863Z,15.12
2023-04-09T13:54:38.776Z,14.38
2023-04-09T13:57:06.953Z,13.81
2023-04-09T13:59:34.866Z,13.37
2023-04-09T14:02:02.957Z,13.06
2023-04-09T14:04:34.719Z,12.78
2023-04-09T14:07:02.625Z,12.77
2023-04-09T14:09:30.669Z,13.76
2023-04-09T14:11:58.702Z,14.93
2023-04-09T14:14:26.633Z,15.37
2023-04-09T14:16:55.560Z,14.82
2023-04-09T14:19:24.270Z,14.14
2023-04-09T14:21:53.362Z,13.64
2023-04-09T14:24:23.194Z,13.26
2023-04-09T14:26:53.489Z,12.93
2023-04-09T14:29:22.175Z,12.67
2023-04-09T14:31:50.731Z,12.45
2023-04-09T14:34:18.703Z,12.55
2023-04-09T14:36:47.193Z,13.66
2023-04-09T14:39:15.954Z,14.70
2023-04-09T14:41:43.873Z,15.38
2023-04-09T14:44:14.680Z,15.65
2023-04-09T14:46:43.443Z,14.95
2023-04-09T14:49:11.382Z,14.20
2023-04-09T14:51:39.509Z,13.62
2023-04-09T14:54:07.391Z,13.19
2023-04-09T14:56:35.415Z,12.86
2023-04-09T14:59:06.225Z,12.59
2023-04-09T15:01:34.309Z,12.62
2023-04-09T15:04:02.730Z,13.68
2023-04-09T15:06:32.348Z,14.74
2023-04-09T15:09:00.738Z,15.26
2023-04-09T15:11:29.545Z,14.82
2023-04-09T15:13:58.073Z,14.19
2023-04-09T15:16:27.687Z,13.70
2023-04-09T15:18:57.811Z,13.34
2023-04-09T15:21:27.181Z,13.08
2023-04-09T15:23:56.319Z,12.85
2023-04-09T15:26:24.501Z,13.03
2023-04-09T15:28:53.709Z,14.15
2023-04-09T15:31:21.801Z,14.99
2023-04-09T15:33:50.419Z,15.29
2023-04-09T15:36:18.399Z,14.79
2023-04-09T15:38:46.471Z,14.04
2023-04-09T15:41:16.922Z,13.46
2023-04-09T15:43:44.788Z,13.05
2023-04-09T15:46:12.872Z,12.78
2023-04-09T15:48:41.728Z,12.88
2023-04-09T15:51:10.176Z,14.04
2023-04-09T15:53:38.058Z,14.96
2023-04-09T15:56:06.538Z,15.53
2023-04-09T15:58:36.234Z,15.59
2023-04-09T16:01:11.056Z,14.94
2023-04-09T16:03:41.891Z,14.29
2023-04-09T16:06:13.508Z,13.84
2023-04-09T16:08:41.759Z,13.48
2023-04-09T16:11:10.602Z,13.15
2023-04-09T16:13:38.477Z,13.27
2023-04-09T16:16:07.473Z,14.17
2023-04-09T16:18:36.015Z,14.89
2023-04-09T16:21:04.348Z,15.36
2023-04-09T16:23:33.064Z,15.54
2023-04-09T16:26:01.229Z,14.95
2023-04-09T16:28:29.053Z,14.30
2023-04-09T16:30:59.264Z,13.82
2023-04-09T16:33:27.626Z,13.46
2023-04-09T16:35:55.690Z,13.18
2023-04-09T16:38:24.774Z,12.91
2023-04-09T16:40:55.118Z,12.91
2023-04-09T16:43:22.959Z,13.91
2023-04-09T16:45:52.329Z,14.89
2023-04-09T16:48:20.997Z,15.56
2023-04-09T16:50:49.283Z,15.85
2023-04-09T16:53:17.183Z,15.21
2023-04-09T16:55:45.177Z,14.51
2023-04-09T16:58:13.385Z,13.98
2023-04-09T17:00:42.116Z,13.63
2023-04-09T17:03:12.617Z,13.35
2023-04-09T17:05:40.483Z,13.10
2023-04-09T17:08:08.479Z,13.36
2023-04-09T17:10:37.114Z,14.24
2023-04-09T17:13:14.910Z,15.12
2023-04-09T17:15:43.829Z,15.80
2023-04-09T17:18:12.244Z,16.09
2023-04-09T17:20:40.740Z,15.49
2023-04-09T17:23:08.989Z,14.84
2023-04-09T17:25:37.044Z,14.34
2023-04-09T17:28:05.028Z,13.94
2023-04-09T17:30:33.399Z,13.64
2023-04-09T17:33:01.838Z,13.37
2023-04-09T17:35:30.259Z,13.10
2023-04-09T17:37:58.892Z,12.97
2023-04-09T17:40:28.263Z,13.73
2023-04-09T17:42:56.510Z,14.73
2023-04-09T17:45:25.427Z,15.35
2023-04-09T17:47:53.499Z,15.64
2023-04-09T17:53:03.831Z,14.37
2023-04-09T17:55:32.369Z,13.85
2023-04-09T17:58:00.511Z,13.48
2023-04-09T18:00:28.522Z,13.18
2023-04-09T18:02:57.643Z,12.91
2023-04-09T18:05:27.653Z,12.93
2023-04-09T18:07:56.876Z,13.73
2023-04-09T18:10:25.402Z,14.34
2023-04-09T18:12:53.610Z,14.85
2023-04-09T18:15:22.645Z,15.33
2023-04-09T18:17:51.567Z,15.32
2023-04-09T18:20:19.599Z,14.70
2023-04-09T18:22:47.574Z,14.11
2023-04-09T18:25:15.879Z,13.67
2023-04-09T18:27:46.774Z,13.31
2023-04-09T18:30:14.683Z,13.01
2023-04-09T18:32:43.491Z,12.97
2023-04-09T18:35:12.224Z,13.92
2023-04-09T18:37:40.568Z,14.82
2023-04-09T18:40:15.500Z,15.33
2023-04-09T18:42:46.530Z,15.54
2023-04-09T18:45:16.686Z,14.89
2023-04-09T18:47:45.364Z,14.19
2023-04-09T18:50:18.213Z,13.71
2023-04-09T18:52:46.244Z,13.34
2023-04-09T18:55:14.810Z,13.05
2023-04-09T18:57:44.239Z,12.79
2023-04-09T19:00:12.986Z,12.87
2023-04-09T19:02:41.118Z,13.99
2023-04-09T19:05:09.661Z,14.83
2023-04-09T19:07:37.972Z,15.38
2023-04-09T19:10:06.604Z,15.58
2023-04-09T19:12:34.537Z,15.02
2023-04-09T19:15:07.032Z,14.38
2023-04-09T19:17:35.039Z,13.90
2023-04-09T19:20:04.430Z,13.53
2023-04-09T19:22:32.933Z,13.24
2023-04-09T19:25:00.903Z,13.00
2023-04-09T19:27:28.974Z,13.06
2023-04-09T19:29:58.855Z,14.16
2023-04-09T19:32:27.278Z,15.11
2023-04-09T19:34:58.696Z,15.65
2023-04-09T19:37:28.853Z,15.14
2023-04-09T19:39:58.158Z,14.46
2023-04-09T19:42:28.754Z,13.94
2023-04-09T19:44:57.342Z,13.56
2023-04-09T19:47:27.407Z,13.27
2023-04-09T19:49:55.589Z,13.01
2023-04-09T19:52:23.793Z,13.03
2023-04-09T19:54:56.420Z,13.97
2023-04-09T19:57:26.561Z,14.83
2023-04-09T19:59:55.265Z,15.50
2023-04-09T20:02:24.101Z,15.82
2023-04-09T20:04:52.571Z,15.22
2023-04-09T20:07:20.897Z,14.56
2023-04-09T20:09:49.718Z,14.06
2023-04-09T20:12:17.724Z,13.69
2023-04-09T20:14:46.645Z,13.41
2023-04-09T20:17:14.553Z,13.15
2023-04-09T20:19:42.471Z,13.15
2023-04-09T20:22:10.496Z,14.09
2023-04-09T20:24:38.512Z,14.93
2023-04-09T20:27:06.530Z,15.28
2023-04-09T20:29:34.722Z,15.37
2023-04-09T20:32:03.609Z,14.87
2023-04-09T20:34:32.602Z,14.30
2023-04-09T20:37:00.539Z,13.85
2023-04-09T20:39:30.476Z,13.51
2023-04-09T20:41:58.702Z,13.23
2023-04-09T20:44:29.023Z,13.20
2023-04-09T20:46:57.039Z,14.11
2023-04-09T20:49:29.802Z,14.98
2023-04-09T20:51:58.393Z,15.58
2023-04-09T20:54:29.866Z,15.93
2023-04-09T20:56:57.952Z,15.36
2023-04-09T20:59:26.429Z,14.72
2023-04-09T21:01:57.612Z,14.22
2023-04-09T21:04:26.121Z,13.83
2023-04-09T21:06:54.517Z,13.53
2023-04-09T21:09:22.448Z,13.27
2023-04-09T21:11:50.536Z,13.29
2023-04-09T21:14:18.442Z,14.40
2023-04-09T21:16:46.488Z,15.45
2023-04-09T21:19:14.567Z,15.88
2023-04-09T21:21:42.626Z,15.28
2023-04-09T21:24:10.511Z,14.57
2023-04-09T21:26:49.533Z,14.01
2023-04-09T21:29:21.258Z,13.59
2023-04-09T21:31:49.973Z,13.28
2023-04-09T21:34:17.848Z,13.01
2023-04-09T21:36:46.281Z,13.06
2023-04-09T21:39:14.433Z,14.03
2023-04-09T21:41:42.457Z,15.00
2023-04-09T21:44:10.529Z,15.50
2023-04-09T21:46:40.701Z,15.04
2023-04-09T21:49:08.927Z,14.40
2023-04-09T21:51:37.506Z,13.91
2023-04-09T21:54:07.104Z,13.52
2023-04-09T21:56:35.969Z,13.21
2023-04-09T21:59:04.043Z,13.19
2023-04-09T22:01:33.609Z,14.27
2023-04-09T22:04:02.097Z,15.47
2023-04-09T22:06:31.287Z,16.05
2023-04-09T22:09:00.043Z,15.46
2023-04-09T22:11:28.647Z,14.74
2023-04-09T22:13:57.533Z,14.17
2023-04-09T22:16:26.401Z,13.73
2023-04-09T22:18:54.797Z,13.41
2023-04-09T22:21:23.202Z,13.14
2023-04-09T22:23:51.529Z,13.12
2023-04-09T22:26:19.999Z,13.95
2023-04-09T22:28:48.067Z,14.90
2023-04-09T22:31:16.902Z,15.63
2023-04-09T22:33:44.799Z,15.83
2023-04-09T22:36:12.800Z,15.17
2023-04-09T22:38:40.695Z,14.52
2023-04-09T22:41:08.563Z,14.02
2023-04-09T22:43:37.222Z,13.67
2023-04-09T22:46:06.039Z,13.36
2023-04-09T22:48:40.829Z,13.10
2023-04-09T22:51:13.749Z,13.10
2023-04-09T22:53:42.014Z,13.91
2023-04-09T22:56:10.070Z,14.78
2023-04-09T22:58:38.476Z,15.46
2023-04-09T23:01:06.901Z,15.92
2023-04-09T23:03:35.012Z,15.33
2023-04-09T23:06:03.126Z,14.63
2023-04-09T23:08:31.313Z,14.06
2023-04-09T23:10:59.168Z,13.64
2023-04-09T23:13:27.173Z,13.30
2023-04-09T23:15:55.139Z,13.00
2023-04-09T23:18:23.064Z,12.73
2023-04-09T23:20:51.236Z,12.48
2023-04-09T23:23:19.284Z,12.23
2023-04-09T23:25:47.109Z,12.27
2023-04-09T23:28:15.041Z,13.18
2023-04-09T23:30:43.988Z,13.83
2023-04-09T23:33:11.851Z,14.55
2023-04-09T23:35:39.955Z,14.95
2023-04-09T23:38:08.067Z,14.39
2023-04-09T23:40:36.000Z,13.72
2023-04-09T23:43:04.673Z,13.22
2023-04-09T23:45:32.520Z,12.81
2023-04-09T23:48:00.911Z,12.47
2023-04-09T23:50:29.069Z,12.19
2023-04-09T23:53:03.406Z,11.93
2023-04-09T23:55:33.552Z,11.70
2023-04-09T23:58:01.651Z,11.73
